KMTP/MTP METAR and TAF weather

Enter ICAO airport designator
Station Type Date Time Source
KMTP METAR 2022/11/30 22:54 UTC NOAA

KMTP 302254Z AUTO 20011G24KT 14/13 A2969 RMK AO1 SLP053 P0023 T01440133


Station Type Date Time Source
KMTP Decoded METAR 2022/11/30 22:54 UTC NOAA

MONTAUK AIRPORT, NY, United States (KMTP) 41-04N 071-55W 2M
Nov 30, 2022 - 05:54 PM EST / 2022.11.30 2254 UTC
Wind: from the SSW (200 degrees) at 13 MPH (11 KT) gusting to 28 MPH (24 KT):0
Precipitation last hour: 0.23 inches
Temperature: 57.9 F (14.4 C)
Dew Point: 55.9 F (13.3 C)
Relative Humidity: 93%
Pressure (altimeter): 29.69 in. Hg (1005 hPa)
ob: KMTP 302254Z AUTO 20011G24KT 14/13 A2969 RMK AO1 SLP053 P0023 T01440133
cycle: 23

Station Type Date Time Source
KMTP TAF UTC NOAA

Error!

Example: see airport list